createdAt,value
2023-01-29T00:00:24.395Z,31.77
2023-01-29T00:02:53.464Z,32.40
2023-01-29T00:05:27.846Z,30.67
2023-01-29T00:07:57.291Z,31.42
2023-01-29T00:10:26.999Z,32.30
2023-01-29T00:12:55.762Z,32.10
2023-01-29T00:15:26.026Z,31.63
2023-01-29T00:17:54.875Z,31.47
2023-01-29T00:20:23.860Z,31.40
2023-01-29T00:22:52.705Z,29.87
2023-01-29T00:25:21.647Z,31.50
2023-01-29T00:27:50.514Z,32.93
2023-01-29T00:30:21.068Z,31.17
2023-01-29T00:32:51.313Z,31.90
2023-01-29T00:35:20.089Z,29.00
2023-01-29T00:37:49.047Z,29.60
2023-01-29T00:40:18.680Z,30.50
2023-01-29T00:43:05.735Z,29.20
2023-01-29T00:45:36.658Z,31.47
2023-01-29T00:48:07.458Z,30.90
2023-01-29T00:50:36.239Z,30.60
2023-01-29T00:53:04.948Z,31.00
2023-01-29T00:55:34.046Z,29.90
2023-01-29T00:58:04.103Z,28.73
2023-01-29T01:00:33.093Z,29.07
2023-01-29T01:03:07.303Z,31.50
2023-01-29T01:05:39.243Z,29.83
2023-01-29T01:08:28.686Z,29.30
2023-01-29T01:11:00.889Z,30.40
2023-01-29T01:13:30.049Z,30.07
2023-01-29T01:15:59.219Z,29.37
2023-01-29T01:18:31.693Z,29.33
2023-01-29T01:21:02.052Z,29.23
2023-01-29T01:23:31.344Z,30.33
2023-01-29T01:26:00.206Z,28.33
2023-01-29T01:28:29.351Z,28.97
2023-01-29T01:30:58.455Z,28.73
2023-01-29T01:33:27.488Z,29.43
2023-01-29T01:35:56.411Z,29.83
2023-01-29T01:38:26.524Z,31.23
2023-01-29T01:40:56.649Z,30.10
2023-01-29T01:43:25.505Z,31.43
2023-01-29T01:45:54.443Z,30.20
2023-01-29T01:48:26.257Z,29.60
2023-01-29T01:51:00.852Z,30.50
2023-01-29T01:53:37.519Z,28.57
2023-01-29T01:56:10.656Z,30.03
2023-01-29T01:58:42.166Z,29.67
2023-01-29T02:01:12.722Z,30.37
2023-01-29T02:04:05.024Z,28.53
2023-01-29T02:06:52.642Z,28.53
2023-01-29T02:09:35.521Z,29.13
2023-01-29T02:12:07.074Z,27.77
2023-01-29T02:14:40.213Z,28.63
2023-01-29T02:17:12.037Z,27.20
2023-01-29T02:19:49.197Z,25.63
2023-01-29T02:22:35.000Z,27.47
2023-01-29T02:25:33.324Z,25.90
2023-01-29T02:28:30.749Z,27.90
2023-01-29T02:31:09.554Z,28.83
2023-01-29T02:33:49.431Z,28.13
2023-01-29T02:36:29.154Z,26.73
2023-01-29T02:39:05.844Z,28.63
2023-01-29T02:41:41.569Z,27.57
2023-01-29T02:44:20.244Z,28.87
2023-01-29T02:46:55.461Z,29.00
2023-01-29T02:49:32.067Z,27.83
2023-01-29T02:52:05.124Z,25.60
2023-01-29T02:54:40.569Z,28.50
2023-01-29T02:57:16.218Z,25.60
2023-01-29T02:59:51.745Z,26.90
2023-01-29T03:02:30.138Z,27.67
2023-01-29T03:05:06.501Z,27.33
2023-01-29T03:07:46.561Z,26.57
2023-01-29T03:10:33.384Z,26.77
2023-01-29T03:13:07.590Z,26.50
2023-01-29T03:15:42.507Z,26.77
2023-01-29T03:18:27.751Z,26.17
2023-01-29T03:21:25.974Z,26.13
2023-01-29T03:24:14.634Z,26.17
2023-01-29T03:27:03.079Z,26.77
2023-01-29T03:29:56.932Z,26.87
2023-01-29T03:32:36.096Z,25.30
2023-01-29T03:35:09.266Z,25.80
2023-01-29T03:37:42.572Z,27.40
2023-01-29T03:40:12.771Z,28.63
2023-01-29T03:42:53.699Z,25.00
2023-01-29T03:45:29.506Z,26.60
2023-01-29T03:48:07.786Z,26.23
2023-01-29T03:50:42.253Z,28.50
2023-01-29T03:53:23.242Z,27.13
2023-01-29T03:55:59.727Z,27.37
2023-01-29T03:58:37.715Z,30.07
2023-01-29T04:01:14.150Z,29.23
2023-01-29T04:03:51.018Z,29.87
2023-01-29T04:06:23.288Z,28.53
2023-01-29T04:09:04.647Z,28.90
2023-01-29T04:11:39.458Z,28.23
2023-01-29T04:14:09.542Z,30.53
2023-01-29T04:16:42.649Z,27.70
2023-01-29T04:19:26.073Z,28.50
2023-01-29T04:22:03.229Z,27.33
2023-01-29T04:24:33.082Z,26.97
2023-01-29T04:27:14.686Z,28.07
2023-01-29T04:29:59.193Z,27.23
2023-01-29T04:32:33.144Z,28.53
2023-01-29T04:35:17.097Z,27.53
2023-01-29T04:37:53.696Z,28.20
2023-01-29T04:40:26.692Z,29.00
2023-01-29T04:43:02.610Z,27.07
2023-01-29T04:45:41.506Z,25.33
2023-01-29T04:48:20.844Z,27.13
2023-01-29T04:50:57.953Z,27.20
2023-01-29T04:53:36.495Z,26.43
2023-01-29T04:56:12.139Z,28.10
2023-01-29T04:58:44.687Z,27.30
2023-01-29T05:01:17.964Z,25.53
2023-01-29T05:03:51.649Z,27.47
2023-01-29T05:06:23.500Z,27.67
2023-01-29T05:08:53.589Z,28.73
2023-01-29T05:11:23.705Z,27.40
2023-01-29T05:13:52.737Z,27.33
2023-01-29T05:16:25.444Z,27.13
2023-01-29T05:18:54.713Z,27.53
2023-01-29T05:21:25.602Z,26.87
2023-01-29T05:24:15.735Z,27.63
2023-01-29T05:27:03.018Z,25.73
2023-01-29T05:29:31.967Z,26.73
2023-01-29T05:32:00.958Z,26.77
2023-01-29T05:34:29.796Z,28.27
2023-01-29T05:37:00.103Z,26.23
2023-01-29T05:39:28.961Z,27.70
2023-01-29T05:41:58.830Z,25.83
2023-01-29T05:44:27.777Z,26.03
2023-01-29T05:46:56.924Z,26.67
2023-01-29T05:49:25.910Z,26.43
2023-01-29T05:51:54.681Z,24.60
2023-01-29T05:54:24.772Z,25.50
2023-01-29T05:56:53.803Z,24.10
2023-01-29T05:59:22.693Z,25.97
2023-01-29T06:01:51.701Z,25.53
2023-01-29T06:04:20.795Z,24.20
2023-01-29T06:06:49.808Z,25.70
2023-01-29T06:09:18.756Z,25.53
2023-01-29T06:11:48.979Z,25.43
2023-01-29T06:14:17.941Z,25.37
2023-01-29T06:16:46.719Z,25.00
2023-01-29T06:19:15.762Z,25.27
2023-01-29T06:21:44.592Z,25.67
2023-01-29T06:24:13.558Z,24.70
2023-01-29T06:26:42.475Z,25.20
2023-01-29T06:29:12.679Z,25.60
2023-01-29T06:31:41.972Z,24.63
2023-01-29T06:34:12.156Z,25.20
2023-01-29T06:36:41.862Z,23.57
2023-01-29T06:39:10.755Z,24.23
2023-01-29T06:41:39.670Z,25.03
2023-01-29T06:44:08.603Z,23.03
2023-01-29T06:46:38.699Z,25.73
2023-01-29T06:49:07.450Z,25.67
2023-01-29T06:51:36.213Z,24.57
2023-01-29T06:54:06.479Z,25.20
2023-01-29T06:56:35.641Z,24.63
2023-01-29T06:59:04.640Z,23.03
2023-01-29T07:01:36.422Z,24.03
2023-01-29T07:04:07.166Z,23.07
2023-01-29T07:06:36.463Z,23.40
2023-01-29T07:09:05.673Z,24.10
2023-01-29T07:11:37.817Z,22.87
2023-01-29T07:14:06.677Z,23.80
2023-01-29T07:16:35.784Z,24.20
2023-01-29T07:19:05.970Z,24.43
2023-01-29T07:21:34.755Z,24.63
2023-01-29T07:24:03.769Z,24.30
2023-01-29T07:26:32.684Z,23.97
2023-01-29T07:29:01.357Z,24.67
2023-01-29T07:31:30.373Z,24.67
2023-01-29T07:33:59.468Z,24.60
2023-01-29T07:36:29.866Z,24.80
2023-01-29T07:38:58.509Z,24.30
2023-01-29T07:41:27.152Z,25.33
2023-01-29T07:43:56.566Z,25.13
2023-01-29T07:46:25.636Z,24.83
2023-01-29T07:48:54.355Z,23.63
2023-01-29T07:51:23.349Z,23.90
2023-01-29T07:53:53.558Z,23.77
2023-01-29T07:56:22.381Z,26.47
2023-01-29T07:58:51.200Z,22.93
2023-01-29T08:01:20.591Z,24.23
2023-01-29T08:03:51.242Z,24.00
2023-01-29T08:06:20.436Z,24.67
2023-01-29T08:08:49.253Z,24.63
2023-01-29T08:11:19.418Z,24.60
2023-01-29T08:13:48.202Z,23.30
2023-01-29T08:16:16.997Z,24.00
2023-01-29T08:18:47.852Z,24.00
2023-01-29T08:21:17.182Z,22.47
2023-01-29T08:23:45.756Z,24.07
2023-01-29T08:26:14.367Z,24.60
2023-01-29T08:28:44.462Z,23.33
2023-01-29T08:31:17.229Z,24.80
2023-01-29T08:33:45.902Z,22.33
2023-01-29T08:36:14.757Z,24.10
2023-01-29T08:38:43.526Z,22.47
2023-01-29T08:41:12.248Z,23.20
2023-01-29T08:43:40.878Z,23.37
2023-01-29T08:46:10.851Z,23.83
2023-01-29T08:48:40.031Z,23.73
2023-01-29T08:51:09.031Z,24.60
2023-01-29T08:53:37.901Z,24.37
2023-01-29T08:56:07.128Z,22.53
2023-01-29T08:58:35.639Z,25.47
2023-01-29T09:01:08.507Z,24.37
2023-01-29T09:03:40.920Z,23.70
2023-01-29T09:06:11.101Z,24.13
2023-01-29T09:08:40.120Z,24.10
2023-01-29T09:11:09.125Z,25.37
2023-01-29T09:13:37.833Z,25.60
2023-01-29T09:16:07.237Z,24.17
2023-01-29T09:18:35.794Z,24.37
2023-01-29T09:21:06.534Z,25.57
2023-01-29T09:23:35.484Z,25.70
2023-01-29T09:26:04.591Z,25.60
2023-01-29T09:28:33.287Z,25.40
2023-01-29T09:31:02.974Z,25.10
2023-01-29T09:33:32.464Z,24.23
2023-01-29T09:36:05.469Z,23.90
2023-01-29T09:38:35.579Z,24.30
2023-01-29T09:41:13.542Z,23.50
2023-01-29T09:43:47.238Z,25.13
2023-01-29T09:46:21.242Z,23.23
2023-01-29T09:48:55.110Z,23.35
2023-01-29T09:51:29.723Z,23.90
2023-01-29T09:54:14.430Z,23.52
2023-01-29T09:56:44.680Z,24.47
2023-01-29T09:59:15.296Z,24.40
2023-01-29T10:01:53.699Z,23.77
2023-01-29T10:04:59.188Z,23.50
2023-01-29T10:07:44.211Z,24.60
2023-01-29T10:10:31.386Z,24.23
2023-01-29T10:13:13.044Z,22.13
2023-01-29T10:16:06.040Z,22.00
2023-01-29T10:19:01.142Z,19.75
2023-01-29T10:21:47.687Z,21.35
2023-01-29T10:24:27.041Z,22.40
2023-01-29T10:26:57.233Z,21.77
2023-01-29T10:29:28.448Z,22.87
2023-01-29T10:32:04.852Z,21.58
2023-01-29T10:34:41.922Z,22.80
2023-01-29T10:37:18.664Z,23.70
2023-01-29T10:39:47.583Z,23.23
2023-01-29T10:42:26.182Z,23.00
2023-01-29T10:45:21.683Z,22.67
2023-01-29T10:48:24.471Z,22.73
2023-01-29T10:50:59.288Z,22.13
2023-01-29T10:53:45.855Z,21.00
2023-01-29T10:56:27.537Z,22.33
2023-01-29T10:59:01.028Z,22.15
2023-01-29T11:01:29.807Z,20.00
2023-01-29T11:04:01.773Z,18.52
2023-01-29T11:06:32.392Z,19.83
2023-01-29T11:09:09.991Z,20.45
2023-01-29T11:11:45.070Z,19.17
2023-01-29T11:14:18.835Z,19.92
2023-01-29T11:16:49.685Z,20.95
2023-01-29T11:19:18.651Z,20.40
2023-01-29T11:21:57.693Z,20.27
2023-01-29T11:24:27.034Z,20.95
2023-01-29T11:26:58.255Z,19.35
2023-01-29T11:29:47.180Z,21.23
2023-01-29T11:32:26.969Z,20.10
2023-01-29T11:35:00.973Z,20.90
2023-01-29T11:37:35.861Z,21.80
2023-01-29T11:40:37.946Z,22.85
2023-01-29T11:43:22.073Z,22.33
2023-01-29T11:45:54.569Z,19.67
2023-01-29T11:48:28.439Z,19.92
2023-01-29T11:51:00.729Z,20.33
2023-01-29T11:53:41.519Z,21.02
2023-01-29T11:56:23.609Z,19.42
2023-01-29T11:58:54.010Z,20.45
2023-01-29T12:01:37.653Z,20.50
2023-01-29T12:04:21.504Z,19.70
2023-01-29T12:06:52.607Z,19.88
2023-01-29T12:09:24.051Z,20.30
2023-01-29T12:11:52.996Z,19.52
2023-01-29T12:14:29.368Z,21.17
2023-01-29T12:17:03.709Z,19.33
2023-01-29T12:19:39.360Z,21.00
2023-01-29T12:22:16.348Z,19.50
2023-01-29T12:24:53.918Z,19.48
2023-01-29T12:27:30.495Z,19.52
2023-01-29T12:30:07.255Z,20.00
2023-01-29T12:32:46.522Z,20.08
2023-01-29T12:35:22.149Z,20.38
2023-01-29T12:37:56.712Z,19.40
2023-01-29T12:40:29.681Z,19.65
2023-01-29T12:43:05.168Z,19.30
2023-01-29T12:45:36.738Z,19.33
2023-01-29T12:48:11.550Z,18.35
2023-01-29T12:50:42.043Z,18.40
2023-01-29T12:53:26.360Z,19.08
2023-01-29T12:56:00.227Z,17.48
2023-01-29T12:58:33.138Z,18.85
2023-01-29T13:01:08.140Z,17.85
2023-01-29T13:03:51.298Z,17.00
2023-01-29T13:06:23.804Z,17.52
2023-01-29T13:08:56.675Z,17.23
2023-01-29T13:11:35.139Z,17.35
2023-01-29T13:14:14.027Z,15.63
2023-01-29T13:16:48.978Z,16.17
2023-01-29T13:19:26.997Z,17.20
2023-01-29T13:21:58.624Z,15.65
2023-01-29T13:24:34.958Z,17.27
2023-01-29T13:27:04.863Z,15.23
2023-01-29T13:29:34.399Z,13.40
2023-01-29T13:32:06.006Z,13.68
2023-01-29T13:34:39.238Z,14.45
2023-01-29T13:37:13.456Z,12.90
2023-01-29T13:39:49.251Z,12.60
2023-01-29T13:42:21.511Z,12.73
2023-01-29T13:44:51.845Z,11.93
2023-01-29T13:47:27.594Z,12.18
2023-01-29T13:50:00.785Z,11.95
2023-01-29T13:52:36.548Z,11.38
2023-01-29T13:55:08.232Z,11.45
2023-01-29T13:57:49.845Z,11.45
2023-01-29T14:00:59.257Z,12.02
2023-01-29T14:04:04.504Z,12.88
2023-01-29T14:06:42.544Z,12.82
2023-01-29T14:09:34.217Z,12.25
2023-01-29T14:12:03.995Z,12.20
2023-01-29T14:14:52.490Z,13.88
2023-01-29T14:17:22.881Z,13.70
2023-01-29T14:19:53.345Z,13.32
2023-01-29T14:22:29.074Z,14.18
2023-01-29T14:25:02.987Z,14.05
2023-01-29T14:27:32.510Z,13.52
2023-01-29T14:30:03.386Z,14.02
2023-01-29T14:32:32.434Z,14.13
2023-01-29T14:35:03.554Z,14.05
2023-01-29T14:37:37.158Z,14.13
2023-01-29T14:40:20.848Z,13.18
2023-01-29T14:42:58.759Z,13.00
2023-01-29T14:45:29.412Z,14.25
2023-01-29T14:48:18.239Z,13.15
2023-01-29T14:51:09.527Z,12.20
2023-01-29T14:53:54.189Z,12.50
2023-01-29T14:56:29.266Z,11.60
2023-01-29T14:59:05.677Z,10.50
2023-01-29T15:01:39.046Z,11.20
2023-01-29T15:04:19.249Z,11.35
2023-01-29T15:06:51.300Z,9.90
2023-01-29T15:09:36.823Z,9.80
2023-01-29T15:12:15.336Z,7.75
2023-01-29T15:14:51.073Z,7.47
2023-01-29T15:17:26.604Z,7.82
2023-01-29T15:19:57.005Z,7.60
2023-01-29T15:22:29.001Z,8.70
2023-01-29T15:25:07.681Z,11.73
2023-01-29T15:27:36.760Z,9.05
2023-01-29T15:30:09.056Z,9.20
2023-01-29T15:32:41.445Z,9.77
2023-01-29T15:35:12.464Z,9.77
2023-01-29T15:37:41.409Z,10.10
2023-01-29T15:40:18.263Z,11.05
2023-01-29T15:42:48.985Z,11.00
2023-01-29T15:45:30.100Z,10.98
2023-01-29T15:48:04.285Z,10.30
2023-01-29T15:50:35.657Z,10.55
2023-01-29T15:53:08.437Z,11.00
2023-01-29T15:55:38.344Z,11.68
2023-01-29T15:58:08.474Z,12.80
2023-01-29T16:01:39.982Z,11.00
2023-01-29T16:04:15.004Z,11.25
2023-01-29T16:06:44.811Z,11.27
2023-01-29T16:09:19.071Z,11.57
2023-01-29T16:11:50.511Z,11.52
2023-01-29T16:14:25.351Z,11.35
2023-01-29T16:16:54.962Z,12.98
2023-01-29T16:19:25.771Z,11.52
2023-01-29T16:21:59.582Z,12.00
2023-01-29T16:24:29.532Z,12.30
2023-01-29T16:27:03.257Z,13.93
2023-01-29T16:29:33.788Z,12.10
2023-01-29T16:32:05.149Z,12.63
2023-01-29T16:34:36.690Z,13.93
2023-01-29T16:37:07.701Z,13.40
2023-01-29T16:39:39.336Z,13.57
2023-01-29T16:42:24.558Z,12.90
2023-01-29T16:44:58.543Z,13.32
2023-01-29T16:47:30.644Z,13.43
2023-01-29T16:50:00.747Z,13.32
2023-01-29T16:52:31.763Z,14.32
2023-01-29T16:55:02.871Z,13.52
2023-01-29T16:57:34.588Z,13.70
2023-01-29T17:00:07.791Z,12.68
2023-01-29T17:02:39.514Z,13.90
2023-01-29T17:05:10.686Z,13.88
2023-01-29T17:07:39.585Z,13.52
2023-01-29T17:10:09.640Z,13.48
2023-01-29T17:12:40.251Z,13.73
2023-01-29T17:15:35.308Z,13.45
2023-01-29T17:18:04.988Z,13.18
2023-01-29T17:20:34.063Z,13.35
2023-01-29T17:23:02.980Z,12.85
2023-01-29T17:25:31.777Z,13.48
2023-01-29T17:28:03.663Z,13.25
2023-01-29T17:30:34.834Z,14.00
2023-01-29T17:33:10.576Z,12.63
2023-01-29T17:35:39.315Z,12.93
2023-01-29T17:38:24.968Z,13.60
2023-01-29T17:40:57.556Z,12.82
2023-01-29T17:43:27.630Z,13.40
2023-01-29T17:45:56.355Z,12.13
2023-01-29T17:48:26.916Z,12.80
2023-01-29T17:50:57.630Z,12.32
2023-01-29T17:53:30.627Z,13.25
2023-01-29T17:56:05.259Z,12.70
2023-01-29T17:58:35.439Z,11.82
2023-01-29T18:01:04.289Z,13.27
2023-01-29T18:03:33.010Z,11.02
2023-01-29T18:06:01.979Z,11.98
2023-01-29T18:08:33.781Z,12.00
2023-01-29T18:11:03.079Z,11.73
2023-01-29T18:13:32.503Z,11.20
2023-01-29T18:16:02.842Z,12.35
2023-01-29T18:18:32.026Z,13.13
2023-01-29T18:21:00.897Z,12.00
2023-01-29T18:23:31.455Z,13.02
2023-01-29T18:26:00.391Z,13.25
2023-01-29T18:28:29.812Z,13.80
2023-01-29T18:30:58.963Z,13.75
2023-01-29T18:33:29.136Z,14.43
2023-01-29T18:35:58.501Z,15.48
2023-01-29T18:38:27.527Z,15.10
2023-01-29T18:41:04.188Z,15.63
2023-01-29T18:43:33.249Z,16.10
2023-01-29T18:46:02.069Z,16.73
2023-01-29T18:48:32.174Z,16.85
2023-01-29T18:51:01.062Z,16.05
2023-01-29T18:53:29.984Z,17.83
2023-01-29T18:56:00.306Z,16.23
2023-01-29T18:58:34.884Z,16.35
2023-01-29T19:01:09.565Z,16.70
2023-01-29T19:03:40.477Z,17.00
2023-01-29T19:06:11.037Z,15.43
2023-01-29T19:08:40.482Z,16.27
2023-01-29T19:11:09.730Z,15.60
2023-01-29T19:13:39.244Z,16.13
2023-01-29T19:16:09.400Z,16.25
2023-01-29T19:18:41.007Z,16.83
2023-01-29T19:21:11.821Z,16.90
2023-01-29T19:23:41.464Z,16.98
2023-01-29T19:26:13.386Z,16.38
2023-01-29T19:28:42.806Z,16.88
2023-01-29T19:31:11.818Z,15.15
2023-01-29T19:33:42.013Z,16.23
2023-01-29T19:36:12.767Z,15.93
2023-01-29T19:38:42.955Z,15.00
2023-01-29T19:41:12.109Z,14.90
2023-01-29T19:43:42.260Z,14.38
2023-01-29T19:46:11.627Z,14.48
2023-01-29T19:48:42.234Z,14.38
2023-01-29T19:51:13.165Z,14.52
2023-01-29T19:53:46.172Z,13.85
2023-01-29T19:56:16.955Z,13.52
2023-01-29T19:58:45.884Z,12.93
2023-01-29T20:01:17.069Z,13.98
2023-01-29T20:03:51.000Z,12.63
2023-01-29T20:06:23.981Z,12.55
2023-01-29T20:08:53.331Z,13.85
2023-01-29T20:11:24.829Z,13.02
2023-01-29T20:13:54.424Z,12.85
2023-01-29T20:16:24.178Z,12.68
2023-01-29T20:18:54.261Z,12.75
2023-01-29T20:21:23.278Z,14.32
2023-01-29T20:23:53.229Z,12.68
2023-01-29T20:26:22.793Z,13.43
2023-01-29T20:28:51.925Z,14.10
2023-01-29T20:31:21.117Z,12.10
2023-01-29T20:33:52.263Z,13.85
2023-01-29T20:36:22.593Z,13.07
2023-01-29T20:38:51.319Z,12.30
2023-01-29T20:41:21.260Z,12.43
2023-01-29T20:43:50.995Z,13.35
2023-01-29T20:46:19.945Z,12.75
2023-01-29T20:48:49.485Z,12.85
2023-01-29T20:51:18.759Z,12.88
2023-01-29T20:53:49.123Z,13.68
2023-01-29T20:56:18.887Z,13.45
2023-01-29T20:59:04.710Z,12.98
2023-01-29T21:01:33.430Z,14.93
2023-01-29T21:04:02.190Z,13.48
2023-01-29T21:06:31.234Z,12.23
2023-01-29T21:09:01.385Z,13.68
2023-01-29T21:11:30.218Z,13.65
2023-01-29T21:13:59.263Z,12.75
2023-01-29T21:16:28.107Z,13.63
2023-01-29T21:18:57.868Z,14.80
2023-01-29T21:21:27.058Z,13.73
2023-01-29T21:23:56.056Z,13.05
2023-01-29T21:26:26.554Z,12.63
2023-01-29T21:28:55.422Z,12.77
2023-01-29T21:31:24.253Z,12.25
2023-01-29T21:33:53.225Z,12.52
2023-01-29T21:36:22.234Z,12.43
2023-01-29T21:38:51.175Z,12.77
2023-01-29T21:41:39.945Z,13.10
2023-01-29T21:44:09.293Z,12.05
2023-01-29T21:46:38.237Z,13.20
2023-01-29T21:49:07.312Z,12.23
2023-01-29T21:51:36.146Z,13.07
2023-01-29T21:54:05.243Z,12.70
2023-01-29T21:56:34.291Z,12.05
2023-01-29T21:59:03.052Z,12.30
2023-01-29T22:01:37.657Z,12.93
2023-01-29T22:04:09.715Z,11.15
2023-01-29T22:06:38.599Z,12.05
2023-01-29T22:09:07.586Z,12.98
2023-01-29T22:11:36.856Z,12.20
2023-01-29T22:14:05.741Z,11.80
2023-01-29T22:16:36.064Z,12.15
2023-01-29T22:19:04.924Z,11.23
2023-01-29T22:21:35.871Z,10.80
2023-01-29T22:24:05.496Z,11.65
2023-01-29T22:26:34.621Z,11.75
2023-01-29T22:29:03.769Z,11.10
2023-01-29T22:31:32.637Z,11.75
2023-01-29T22:34:03.469Z,11.18
2023-01-29T22:36:32.447Z,10.98
2023-01-29T22:39:01.508Z,10.98
2023-01-29T22:41:30.872Z,10.85
2023-01-29T22:43:59.727Z,11.70
2023-01-29T22:46:28.621Z,11.07
2023-01-29T22:48:57.657Z,9.52
2023-01-29T22:51:27.897Z,8.48
2023-01-29T22:53:57.875Z,8.35
2023-01-29T22:56:29.734Z,8.35
2023-01-29T22:59:00.682Z,7.63
2023-01-29T23:01:31.364Z,8.35
2023-01-29T23:04:00.514Z,7.70
2023-01-29T23:06:30.737Z,8.10
2023-01-29T23:08:59.454Z,9.05
2023-01-29T23:11:28.239Z,7.70
2023-01-29T23:13:57.191Z,8.57
2023-01-29T23:16:28.275Z,8.55
2023-01-29T23:18:57.849Z,8.55
2023-01-29T23:21:27.759Z,8.13
2023-01-29T23:23:59.623Z,7.90
2023-01-29T23:26:46.956Z,8.60
2023-01-29T23:29:16.236Z,9.00
2023-01-29T23:31:45.295Z,8.18
2023-01-29T23:34:15.188Z,7.97
2023-01-29T23:36:44.507Z,8.32
2023-01-29T23:39:14.713Z,7.95
2023-01-29T23:41:43.784Z,7.47
2023-01-29T23:44:12.623Z,7.72
2023-01-29T23:46:41.743Z,7.68
2023-01-29T23:49:10.693Z,7.00
2023-01-29T23:51:39.666Z,6.80
2023-01-29T23:54:08.733Z,7.13
2023-01-29T23:56:38.926Z,6.85
2023-01-29T23:59:07.974Z,6.85
